createdAt,value
2022-08-29T00:02:17.978Z,18.68
2022-08-29T00:04:48.759Z,18.74
2022-08-29T00:07:19.479Z,18.80
2022-08-29T00:09:49.942Z,18.84
2022-08-29T00:12:20.380Z,18.87
2022-08-29T00:14:52.036Z,18.90
2022-08-29T00:17:22.283Z,18.90
2022-08-29T00:19:52.653Z,18.99
2022-08-29T00:22:22.897Z,19.05
2022-08-29T00:24:53.124Z,19.09
2022-08-29T00:27:23.725Z,19.16
2022-08-29T00:29:54.693Z,19.21
2022-08-29T00:32:25.381Z,19.21
2022-08-29T00:34:55.915Z,19.19
2022-08-29T00:37:27.203Z,19.22
2022-08-29T00:39:59.075Z,19.26
2022-08-29T00:42:30.025Z,19.35
2022-08-29T00:45:00.425Z,19.44
2022-08-29T00:47:35.755Z,19.54
2022-08-29T00:50:10.299Z,19.61
2022-08-29T00:52:48.974Z,19.68
2022-08-29T00:55:23.970Z,19.74
2022-08-29T00:58:00.822Z,19.80
2022-08-29T01:00:32.364Z,19.84
2022-08-29T01:03:04.338Z,19.89
2022-08-29T01:05:36.378Z,19.95
2022-08-29T01:08:10.055Z,20.04
2022-08-29T01:10:59.090Z,20.09
2022-08-29T01:13:36.375Z,20.22
2022-08-29T01:16:08.604Z,20.27
2022-08-29T01:18:41.296Z,20.29
2022-08-29T01:21:33.191Z,20.34
2022-08-29T01:24:18.573Z,20.41
2022-08-29T01:26:49.757Z,20.38
2022-08-29T01:29:20.003Z,20.34
2022-08-29T01:31:57.240Z,20.32
2022-08-29T01:34:28.934Z,20.31
2022-08-29T01:37:05.832Z,20.27
2022-08-29T01:39:39.205Z,20.24
2022-08-29T01:42:13.560Z,20.23
2022-08-29T01:44:49.751Z,20.24
2022-08-29T01:47:20.706Z,20.24
2022-08-29T01:49:50.665Z,20.26
2022-08-29T01:52:21.908Z,20.27
2022-08-29T01:54:52.042Z,20.34
2022-08-29T01:57:22.701Z,20.40
2022-08-29T01:59:53.031Z,20.46
2022-08-29T02:02:27.781Z,20.47
2022-08-29T02:05:00.804Z,20.50
2022-08-29T02:07:31.133Z,20.52
2022-08-29T02:10:01.336Z,20.56
2022-08-29T02:12:32.883Z,20.65
2022-08-29T02:15:03.635Z,20.77
2022-08-29T02:17:34.208Z,20.84
2022-08-29T02:20:06.242Z,20.91
2022-08-29T02:22:40.572Z,20.96
2022-08-29T02:25:30.522Z,21.03
2022-08-29T02:28:01.104Z,21.10
2022-08-29T02:30:31.415Z,21.28
2022-08-29T02:33:00.814Z,21.38
2022-08-29T02:35:35.996Z,21.48
2022-08-29T02:38:08.661Z,21.56
2022-08-29T02:40:39.747Z,21.64
2022-08-29T02:43:10.596Z,21.73
2022-08-29T02:45:43.689Z,21.73
2022-08-29T02:48:14.884Z,21.68
2022-08-29T02:50:51.680Z,21.71
2022-08-29T02:53:27.210Z,21.67
2022-08-29T02:55:57.579Z,21.66
2022-08-29T02:58:28.820Z,21.64
2022-08-29T03:00:59.129Z,21.62
2022-08-29T03:03:29.864Z,21.61
2022-08-29T03:05:59.203Z,21.60
2022-08-29T03:08:29.152Z,21.58
2022-08-29T03:10:59.574Z,21.53
2022-08-29T03:13:30.202Z,21.50
2022-08-29T03:16:01.335Z,21.54
2022-08-29T03:18:32.295Z,21.58
2022-08-29T03:21:03.207Z,21.63
2022-08-29T03:23:33.391Z,21.63
2022-08-29T03:26:03.844Z,21.64
2022-08-29T03:28:34.025Z,21.62
2022-08-29T03:31:04.860Z,21.67
2022-08-29T03:33:35.029Z,21.60
2022-08-29T03:39:30.740Z,21.75
2022-08-29T03:42:13.193Z,21.79
2022-08-29T03:44:59.139Z,21.84
2022-08-29T03:50:28.299Z,21.97
2022-08-29T03:53:19.330Z,22.04
2022-08-29T03:56:18.791Z,22.11
2022-08-29T03:58:53.234Z,22.12
2022-08-29T04:01:27.388Z,22.19
2022-08-29T04:10:20.845Z,22.29
2022-08-29T04:12:54.497Z,22.30
2022-08-29T04:15:27.313Z,22.29
2022-08-29T04:18:02.007Z,22.35
2022-08-29T04:20:35.835Z,22.37
2022-08-29T04:23:06.374Z,22.44
2022-08-29T04:25:39.825Z,22.48
2022-08-29T04:28:14.302Z,22.57
2022-08-29T04:30:51.362Z,22.63
2022-08-29T04:33:24.770Z,22.71
2022-08-29T04:35:55.450Z,22.74
2022-08-29T04:38:25.496Z,22.74
2022-08-29T04:40:55.574Z,22.77
2022-08-29T04:43:25.823Z,22.78
2022-08-29T04:45:59.625Z,22.83
2022-08-29T04:48:30.981Z,22.88
2022-08-29T04:51:03.369Z,22.94
2022-08-29T04:53:34.005Z,22.96
2022-08-29T04:56:08.879Z,22.99
2022-08-29T04:58:43.559Z,23.03
2022-08-29T05:01:20.401Z,23.06
2022-08-29T05:03:51.120Z,23.09
2022-08-29T05:06:23.454Z,23.12
2022-08-29T05:08:59.095Z,23.04
2022-08-29T05:11:33.020Z,23.14
2022-08-29T05:14:03.905Z,23.09
2022-08-29T05:16:38.563Z,23.13
2022-08-29T05:19:09.806Z,23.17
2022-08-29T05:21:42.147Z,23.22
2022-08-29T05:24:14.128Z,23.25
2022-08-29T05:26:46.939Z,23.29
2022-08-29T05:29:16.968Z,23.30
2022-08-29T05:31:47.724Z,23.32
2022-08-29T05:34:34.792Z,23.35
2022-08-29T05:37:09.135Z,23.40
2022-08-29T05:39:41.692Z,23.43
2022-08-29T05:42:13.785Z,23.48
2022-08-29T05:44:44.639Z,23.52
2022-08-29T05:47:17.409Z,23.52
2022-08-29T05:49:49.343Z,23.54
2022-08-29T05:52:22.272Z,23.55
2022-08-29T05:54:53.005Z,23.58
2022-08-29T05:57:25.589Z,23.62
2022-08-29T05:59:56.716Z,23.60
2022-08-29T06:02:36.714Z,23.59
2022-08-29T06:05:18.749Z,23.59
2022-08-29T06:07:49.742Z,23.60
2022-08-29T06:10:20.055Z,23.66
2022-08-29T06:12:50.104Z,23.66
2022-08-29T06:15:20.208Z,23.69
2022-08-29T06:17:50.916Z,23.73
2022-08-29T06:20:20.935Z,23.83
2022-08-29T06:22:50.925Z,23.88
2022-08-29T06:25:39.818Z,23.90
2022-08-29T06:28:10.719Z,23.91
2022-08-29T06:30:43.322Z,23.92
2022-08-29T06:33:13.532Z,23.92
2022-08-29T06:35:43.456Z,23.95
2022-08-29T06:38:14.206Z,23.96
2022-08-29T06:40:45.006Z,23.99
2022-08-29T06:43:15.498Z,24.03
2022-08-29T06:45:46.608Z,24.04
2022-08-29T06:48:17.279Z,24.02
2022-08-29T06:50:48.109Z,24.03
2022-08-29T06:53:27.554Z,24.05
2022-08-29T06:56:11.912Z,24.08
2022-08-29T06:58:41.901Z,24.11
2022-08-29T07:01:15.744Z,24.11
2022-08-29T07:03:46.234Z,24.11
2022-08-29T07:06:18.014Z,24.10
2022-08-29T07:08:55.805Z,24.07
2022-08-29T07:11:28.391Z,24.05
2022-08-29T07:14:01.484Z,24.07
2022-08-29T07:16:32.622Z,24.06
2022-08-29T07:19:04.491Z,24.09
2022-08-29T07:21:35.266Z,24.11
2022-08-29T07:24:06.427Z,24.11
2022-08-29T07:26:42.663Z,24.11
2022-08-29T07:29:17.820Z,24.11
2022-08-29T07:31:49.240Z,24.09
2022-08-29T07:34:21.149Z,24.07
2022-08-29T07:36:56.073Z,24.11
2022-08-29T07:39:29.811Z,24.14
2022-08-29T07:42:08.628Z,24.18
2022-08-29T07:44:39.436Z,24.25
2022-08-29T07:47:12.784Z,24.33
2022-08-29T07:49:43.789Z,24.41
2022-08-29T07:52:13.982Z,24.44
2022-08-29T07:54:44.703Z,24.48
2022-08-29T07:57:17.846Z,24.53
2022-08-29T07:59:48.486Z,24.58
2022-08-29T08:02:18.100Z,24.63
2022-08-29T08:04:48.413Z,24.63
2022-08-29T08:07:22.782Z,24.60
2022-08-29T08:10:00.440Z,24.56
2022-08-29T08:12:31.079Z,24.50
2022-08-29T08:15:02.159Z,24.44
2022-08-29T08:17:32.808Z,24.39
2022-08-29T08:20:03.467Z,24.37
2022-08-29T08:22:34.133Z,24.38
2022-08-29T08:25:06.532Z,24.43
2022-08-29T08:27:41.238Z,24.45
2022-08-29T08:30:14.743Z,24.44
2022-08-29T08:32:49.573Z,24.43
2022-08-29T08:35:23.147Z,24.45
2022-08-29T08:37:54.592Z,24.47
2022-08-29T08:40:31.748Z,24.48
2022-08-29T08:43:04.782Z,24.47
2022-08-29T08:45:47.430Z,24.46
2022-08-29T08:48:25.009Z,24.44
2022-08-29T08:51:17.958Z,24.43
2022-08-29T08:53:54.036Z,24.39
2022-08-29T08:56:45.785Z,24.37
2022-08-29T08:59:19.773Z,24.33
2022-08-29T09:02:14.282Z,24.31
2022-08-29T09:04:53.828Z,24.28
2022-08-29T09:07:48.215Z,24.23
2022-08-29T09:10:38.233Z,24.14
2022-08-29T09:13:26.575Z,24.06
2022-08-29T09:16:01.449Z,24.01
2022-08-29T09:18:54.080Z,23.95
2022-08-29T09:21:42.118Z,23.91
2022-08-29T09:24:19.824Z,23.88
2022-08-29T09:26:50.902Z,23.82
2022-08-29T09:29:22.296Z,23.78
2022-08-29T09:32:22.759Z,23.74
2022-08-29T09:35:09.658Z,23.70
2022-08-29T09:37:40.743Z,23.65
2022-08-29T09:40:15.831Z,23.59
2022-08-29T09:43:04.295Z,23.57
2022-08-29T09:45:34.570Z,23.55
2022-08-29T09:48:19.034Z,23.52
2022-08-29T09:50:49.500Z,23.47
2022-08-29T09:53:25.897Z,23.45
2022-08-29T09:55:56.190Z,23.37
2022-08-29T09:58:26.439Z,23.38
2022-08-29T10:01:12.887Z,23.36
2022-08-29T10:03:53.735Z,23.35
2022-08-29T10:06:27.620Z,23.34
2022-08-29T10:09:22.352Z,23.32
2022-08-29T10:12:07.841Z,23.30
2022-08-29T10:14:54.821Z,23.26
2022-08-29T10:17:56.597Z,23.24
2022-08-29T10:20:53.836Z,23.20
2022-08-29T10:23:46.247Z,23.16
2022-08-29T10:26:48.419Z,23.14
2022-08-29T10:29:59.414Z,23.10
2022-08-29T10:32:46.109Z,23.05
2022-08-29T10:35:26.192Z,23.03
2022-08-29T10:38:16.071Z,23.00
2022-08-29T10:40:46.772Z,22.95
2022-08-29T10:43:47.032Z,22.92
2022-08-29T10:46:46.365Z,22.86
2022-08-29T10:49:46.367Z,22.81
2022-08-29T10:52:46.872Z,22.78
2022-08-29T10:56:15.612Z,22.72
2022-08-29T10:59:16.579Z,22.64
2022-08-29T11:05:52.383Z,22.54
2022-08-29T11:09:12.970Z,22.47
2022-08-29T11:11:51.203Z,22.44
2022-08-29T11:14:30.800Z,22.40
2022-08-29T11:17:03.510Z,22.35
2022-08-29T11:20:38.539Z,22.33
2022-08-29T11:23:40.946Z,22.27
2022-08-29T11:26:42.376Z,22.23
2022-08-29T11:33:19.856Z,22.08
2022-08-29T11:36:26.956Z,22.05
2022-08-29T11:39:19.839Z,21.99
2022-08-29T11:41:58.754Z,21.95
2022-08-29T11:44:37.869Z,21.91
2022-08-29T11:47:33.904Z,21.89
2022-08-29T11:50:17.104Z,21.86
2022-08-29T11:53:01.960Z,21.82
2022-08-29T11:55:42.053Z,21.76
2022-08-29T11:58:18.568Z,21.75
2022-08-29T12:00:55.936Z,21.73
2022-08-29T12:03:37.295Z,21.70
2022-08-29T12:06:28.351Z,21.69
2022-08-29T12:09:52.268Z,21.67
2022-08-29T12:12:48.573Z,21.65
2022-08-29T12:15:33.694Z,21.63
2022-08-29T12:18:14.748Z,21.61
2022-08-29T12:20:51.466Z,21.58
2022-08-29T12:23:46.885Z,21.55
2022-08-29T12:26:48.447Z,21.55
2022-08-29T12:29:25.871Z,21.53
2022-08-29T12:32:22.588Z,21.50
2022-08-29T12:35:25.238Z,21.47
2022-08-29T12:38:15.541Z,21.45
2022-08-29T12:41:09.280Z,21.42
2022-08-29T12:43:46.101Z,21.37
2022-08-29T12:46:31.311Z,21.35
2022-08-29T12:49:17.328Z,21.33
2022-08-29T12:51:52.720Z,21.31
2022-08-29T12:54:46.031Z,21.28
2022-08-29T12:57:30.933Z,21.26
2022-08-29T13:00:32.495Z,21.24
2022-08-29T13:03:52.610Z,21.21
2022-08-29T13:09:43.898Z,21.11
2022-08-29T13:12:17.070Z,21.05
2022-08-29T13:14:59.735Z,21.01
2022-08-29T13:17:39.372Z,21.01
2022-08-29T13:20:43.325Z,20.98
2022-08-29T13:23:19.175Z,20.95
2022-08-29T13:25:52.863Z,20.92
2022-08-29T13:29:00.123Z,20.92
2022-08-29T13:31:39.217Z,20.91
2022-08-29T13:34:09.493Z,20.90
2022-08-29T13:37:01.593Z,20.88
2022-08-29T13:39:41.085Z,20.88
2022-08-29T13:42:21.396Z,20.86
2022-08-29T13:44:53.083Z,20.84
2022-08-29T13:47:35.037Z,20.80
2022-08-29T13:50:11.160Z,20.78
2022-08-29T13:52:41.300Z,20.75
2022-08-29T13:55:12.171Z,20.74
2022-08-29T13:57:43.584Z,20.71
2022-08-29T14:00:14.973Z,20.70
2022-08-29T14:02:45.750Z,20.68
2022-08-29T14:05:22.151Z,20.67
2022-08-29T14:07:54.007Z,20.65
2022-08-29T14:10:24.682Z,20.63
2022-08-29T14:12:54.730Z,20.63
2022-08-29T14:15:24.782Z,20.61
2022-08-29T14:17:54.967Z,20.59
2022-08-29T14:20:25.808Z,20.59
2022-08-29T14:22:56.001Z,20.58
2022-08-29T14:25:26.889Z,20.55
2022-08-29T14:27:57.066Z,20.55
2022-08-29T14:30:27.804Z,20.53
2022-08-29T14:32:57.944Z,20.52
2022-08-29T14:35:31.923Z,20.50
2022-08-29T14:41:08.751Z,20.47
2022-08-29T14:44:20.202Z,20.47
2022-08-29T14:46:51.954Z,20.45
2022-08-29T14:49:22.341Z,20.43
2022-08-29T14:51:52.862Z,20.42
2022-08-29T14:54:22.969Z,20.40
2022-08-29T14:56:55.607Z,20.40
2022-08-29T14:59:26.901Z,20.40
2022-08-29T15:01:58.067Z,20.39
2022-08-29T15:04:35.528Z,20.38
2022-08-29T15:07:13.372Z,20.37
2022-08-29T15:09:45.369Z,20.36
2022-08-29T15:12:19.185Z,20.34
2022-08-29T15:14:51.361Z,20.32
2022-08-29T15:17:21.975Z,20.30
2022-08-29T15:22:48.715Z,20.26
2022-08-29T15:25:20.368Z,20.26
2022-08-29T15:27:50.061Z,20.22
2022-08-29T15:30:26.512Z,20.22
2022-08-29T15:32:56.887Z,20.18
2022-08-29T15:35:28.298Z,20.19
2022-08-29T15:37:58.950Z,20.18
2022-08-29T15:40:30.143Z,20.18
2022-08-29T15:43:00.571Z,20.18
2022-08-29T15:45:32.043Z,20.15
2022-08-29T15:48:03.420Z,20.13
2022-08-29T15:50:33.978Z,20.11
2022-08-29T15:53:05.936Z,20.11
2022-08-29T15:55:35.948Z,20.10
2022-08-29T15:58:07.379Z,20.10
2022-08-29T16:00:37.420Z,20.08
2022-08-29T16:03:08.994Z,20.07
2022-08-29T16:05:41.482Z,20.07
2022-08-29T16:08:12.944Z,20.07
2022-08-29T16:10:47.729Z,20.07
2022-08-29T16:13:18.205Z,20.05
2022-08-29T16:15:50.361Z,20.03
2022-08-29T16:18:20.533Z,20.01
2022-08-29T16:20:50.120Z,20.02
2022-08-29T16:23:22.928Z,19.99
2022-08-29T16:25:52.920Z,20.00
2022-08-29T16:28:23.176Z,19.98
2022-08-29T16:30:54.611Z,19.98
2022-08-29T16:33:25.044Z,19.97
2022-08-29T16:35:55.725Z,19.95
2022-08-29T16:38:25.804Z,19.96
2022-08-29T16:40:56.119Z,19.95
2022-08-29T16:43:26.646Z,19.94
2022-08-29T16:45:56.657Z,19.92
2022-08-29T16:48:26.695Z,19.92
2022-08-29T16:50:56.915Z,19.90
2022-08-29T16:53:27.653Z,19.90
2022-08-29T16:55:57.860Z,19.87
2022-08-29T16:58:46.177Z,19.89
2022-08-29T17:01:15.621Z,19.89
2022-08-29T17:03:45.489Z,19.88
2022-08-29T17:06:15.472Z,19.83
2022-08-29T17:08:45.516Z,19.85
2022-08-29T17:11:15.310Z,19.83
2022-08-29T17:13:45.499Z,19.83
2022-08-29T17:16:16.170Z,19.80
2022-08-29T17:18:48.096Z,19.79
2022-08-29T17:21:18.886Z,19.77
2022-08-29T17:23:49.755Z,19.75
2022-08-29T17:26:21.317Z,19.74
2022-08-29T17:28:52.558Z,19.74
2022-08-29T17:31:23.506Z,19.73
2022-08-29T17:33:55.073Z,19.73
2022-08-29T17:36:25.268Z,19.72
2022-08-29T17:38:55.300Z,19.73
2022-08-29T17:41:25.277Z,19.73
2022-08-29T17:43:55.575Z,19.73
2022-08-29T17:46:25.733Z,19.72
2022-08-29T17:48:55.251Z,19.73
2022-08-29T17:51:25.464Z,19.72
2022-08-29T17:53:55.757Z,19.71
2022-08-29T17:56:46.112Z,19.71
2022-08-29T17:59:17.856Z,19.70
2022-08-29T18:01:48.474Z,19.72
2022-08-29T18:04:19.055Z,19.70
2022-08-29T18:06:49.117Z,19.67
2022-08-29T18:09:19.838Z,19.65
2022-08-29T18:11:52.097Z,19.64
2022-08-29T18:14:25.000Z,19.62
2022-08-29T18:16:56.246Z,19.59
2022-08-29T18:19:28.352Z,19.59
2022-08-29T18:21:58.379Z,19.57
2022-08-29T18:24:28.731Z,19.57
2022-08-29T18:26:58.763Z,19.58
2022-08-29T18:29:28.815Z,19.56
2022-08-29T18:31:58.950Z,19.54
2022-08-29T18:34:29.852Z,19.53
2022-08-29T18:36:59.972Z,19.53
2022-08-29T18:39:31.256Z,19.53
2022-08-29T18:42:13.357Z,19.51
2022-08-29T18:45:01.219Z,19.48
2022-08-29T18:47:31.617Z,19.47
2022-08-29T18:50:20.543Z,19.44
2022-08-29T18:52:56.337Z,19.41
2022-08-29T18:55:27.061Z,19.36
2022-08-29T18:57:58.462Z,19.34
2022-08-29T19:00:29.447Z,19.33
2022-08-29T19:03:08.581Z,19.32
2022-08-29T19:05:42.258Z,19.31
2022-08-29T19:08:13.234Z,19.32
2022-08-29T19:10:46.599Z,19.31
2022-08-29T19:13:18.187Z,19.29
2022-08-29T19:15:49.838Z,19.26
2022-08-29T19:18:20.242Z,19.24
2022-08-29T19:21:09.237Z,19.22
2022-08-29T19:23:42.856Z,19.21
2022-08-29T19:26:18.751Z,19.20
2022-08-29T19:28:49.634Z,19.20
2022-08-29T19:31:20.572Z,19.18
2022-08-29T19:33:50.875Z,19.15
2022-08-29T19:36:21.004Z,19.14
2022-08-29T19:38:51.661Z,19.13
2022-08-29T19:41:21.816Z,19.10
2022-08-29T19:43:52.886Z,19.06
2022-08-29T19:46:25.466Z,19.09
2022-08-29T19:48:58.745Z,19.06
2022-08-29T19:51:34.042Z,19.02
2022-08-29T19:54:07.418Z,19.01
2022-08-29T19:56:37.579Z,18.98
2022-08-29T19:59:07.759Z,18.98
2022-08-29T20:01:38.325Z,18.97
2022-08-29T20:04:08.892Z,18.97
2022-08-29T20:06:41.554Z,18.94
2022-08-29T20:09:14.075Z,18.92
2022-08-29T20:11:44.271Z,18.91
2022-08-29T20:14:14.641Z,18.88
2022-08-29T20:16:46.276Z,18.90
2022-08-29T20:19:17.171Z,18.88
2022-08-29T20:21:47.541Z,18.86
2022-08-29T20:24:18.184Z,18.82
2022-08-29T20:26:49.252Z,18.83
2022-08-29T20:29:21.075Z,18.80
2022-08-29T20:31:51.604Z,18.80
2022-08-29T20:34:22.023Z,18.78
2022-08-29T20:37:10.983Z,18.75
2022-08-29T20:39:47.453Z,18.71
2022-08-29T20:42:22.006Z,18.70
2022-08-29T20:44:52.930Z,18.65
2022-08-29T20:47:25.106Z,18.61
2022-08-29T20:49:58.142Z,18.60
2022-08-29T20:52:28.877Z,18.57
2022-08-29T20:54:58.138Z,18.54
2022-08-29T20:57:28.513Z,18.50
2022-08-29T20:59:59.019Z,18.48
2022-08-29T21:02:47.617Z,18.46
2022-08-29T21:05:36.694Z,18.44
2022-08-29T21:08:07.822Z,18.39
2022-08-29T21:10:39.277Z,18.35
2022-08-29T21:13:10.394Z,18.33
2022-08-29T21:15:42.845Z,18.31
2022-08-29T21:18:15.818Z,18.28
2022-08-29T21:20:56.542Z,18.26
2022-08-29T21:23:28.008Z,18.25
2022-08-29T21:26:02.218Z,18.22
2022-08-29T21:28:38.023Z,18.21
2022-08-29T21:31:13.167Z,18.18
2022-08-29T21:33:46.772Z,18.16
2022-08-29T21:36:21.066Z,18.14
2022-08-29T21:38:56.737Z,18.13
2022-08-29T21:41:29.680Z,18.11
2022-08-29T21:44:00.632Z,18.11
2022-08-29T21:46:34.108Z,18.08
2022-08-29T21:49:09.034Z,18.10
2022-08-29T21:51:39.961Z,18.09
2022-08-29T21:54:13.413Z,18.09
2022-08-29T21:56:45.301Z,18.09
2022-08-29T21:59:18.340Z,18.10
2022-08-29T22:01:54.833Z,18.10
2022-08-29T22:04:28.834Z,18.11
2022-08-29T22:07:00.996Z,18.12
2022-08-29T22:09:33.739Z,18.13
2022-08-29T22:12:05.078Z,18.12
2022-08-29T22:14:54.056Z,18.13
2022-08-29T22:17:24.955Z,18.14
2022-08-29T22:19:55.653Z,18.14
2022-08-29T22:22:25.868Z,18.15
2022-08-29T22:24:55.984Z,18.16
2022-08-29T22:27:26.551Z,18.22
2022-08-29T22:29:56.271Z,18.24
2022-08-29T22:32:27.415Z,18.25
2022-08-29T22:35:08.232Z,18.28
2022-08-29T22:37:38.455Z,18.33
2022-08-29T22:40:16.329Z,18.36
2022-08-29T22:42:47.653Z,18.41
2022-08-29T22:45:20.093Z,18.47
2022-08-29T22:47:50.190Z,18.53
2022-08-29T22:50:24.683Z,18.60
2022-08-29T22:53:00.159Z,18.65
2022-08-29T22:58:01.667Z,18.72
2022-08-29T23:00:31.689Z,18.76
2022-08-29T23:03:04.323Z,18.83
2022-08-29T23:05:34.479Z,18.87
2022-08-29T23:08:03.846Z,18.91
2022-08-29T23:10:33.876Z,18.93
2022-08-29T23:13:03.961Z,18.98
2022-08-29T23:15:34.001Z,19.02
2022-08-29T23:18:05.838Z,19.06
2022-08-29T23:20:35.776Z,19.11
2022-08-29T23:23:08.498Z,19.18
2022-08-29T23:25:38.914Z,19.22
2022-08-29T23:28:09.634Z,19.25
2022-08-29T23:30:40.357Z,19.26
2022-08-29T23:33:10.626Z,19.25
2022-08-29T23:35:39.911Z,19.27
2022-08-29T23:38:09.975Z,19.27
2022-08-29T23:40:41.197Z,19.32
2022-08-29T23:43:12.291Z,19.33
2022-08-29T23:45:42.964Z,19.35
2022-08-29T23:48:13.188Z,19.36
2022-08-29T23:50:45.360Z,19.40
2022-08-29T23:53:19.701Z,19.44
2022-08-29T23:55:49.738Z,19.48
2022-08-29T23:58:21.034Z,19.56
